| time (UTC) | temp F | wind direction | speed knots | gust knots | rain 1hr in | rain 24hr in | rain mn in | humidity % | barometer mb |
| 20260508105004 | 40 | 66 | 5.2 | 7.8 | 0.00 | 0.00 | 0.00 | 54 | 1020.2 |
| 20260508104504 | 40 | 44 | 4.3 | 7.8 | 0.00 | 0.00 | 0.00 | 54 | 1020.2 |
| 20260508104004 | 40 | 38 | 5.2 | 8.7 | 0.00 | 0.00 | 0.00 | 55 | 1020.2 |
| 20260508103504 | 39 | 60 | 6.1 | 8.7 | 0.00 | 0.00 | 0.00 | 55 | 1020.2 |
| 20260508103005 | 39 | 54 | 3.5 | 6.1 | 0.00 | 0.00 | 0.00 | 56 | 1020.3 |
| 20260508102504 | 39 | 53 | 4.3 | 5.2 | 0.00 | 0.00 | 0.00 | 56 | 1020.3 |
| 20260508102004 | 39 | 53 | 3.5 | 7.8 | 0.00 | 0.00 | 0.00 | 56 | 1020.4 |
| 20260508101504 | 39 | 83 | 5.2 | 7.8 | 0.00 | 0.00 | 0.00 | 56 | 1020.6 |
| 20260508101004 | 39 | 42 | 5.2 | 6.1 | 0.00 | 0.00 | 0.00 | 55 | 1020.6 |
| 20260508100505 | 39 | 52 | 0.9 | 5.2 | 0.00 | 0.00 | 0.00 | 54 | 1020.3 |
| 20260508100004 | 40 | 65 | 3.5 | 5.2 | 0.00 | 0.00 | 0.00 | 53 | 1020.3 |
| 20260508095504 | 41 | 39 | 4.3 | 5.2 | 0.00 | 0.00 | 0.00 | 51 | 1020.3 |
| 20260508094505 | 42 | 41 | 0.9 | 4.3 | 0.00 | 0.00 | 0.00 | 49 | 1020.3 |
| 20260508094005 | 42 | 59 | 1.7 | 5.2 | 0.00 | 0.00 | 0.00 | 50 | 1020.3 |
| 20260508093504 | 42 | 72 | 1.7 | 5.2 | 0.00 | 0.00 | 0.00 | 50 | 1020.3 |
| 20260508093005 | 42 | 44 | 4.3 | 7.0 | 0.00 | 0.00 | 0.00 | 50 | 1020.2 |
| 20260508092504 | 42 | 42 | 4.3 | 7.0 | 0.00 | 0.00 | 0.00 | 50 | 1020.2 |
| 20260508091504 | 43 | 42 | 4.3 | 7.0 | 0.00 | 0.00 | 0.00 | 47 | 1020.3 |
| 20260508090504 | 46 | 55 | 1.7 | 6.1 | 0.00 | 0.00 | 0.00 | 43 | 1020.6 |
| 20260508090005 | 46 | 78 | 2.6 | 10.4 | 0.00 | 0.00 | 0.00 | 44 | 1020.6 |
| 20260508085004 | 42 | 64 | 6.1 | 10.4 | 0.00 | 0.00 | 0.00 | 48 | 1020.3 |
| 20260508084504 | 43 | 42 | 0.0 | 6.1 | 0.00 | 0.00 | 0.00 | 47 | 1020.2 |
| 20260508084004 | 44 | 55 | 4.3 | 6.1 | 0.00 | 0.00 | 0.00 | 46 | 1020.1 |
| 20260508083505 | 44 | 54 | 2.6 | 4.3 | 0.00 | 0.00 | 0.00 | 46 | 1020.1 |
| 20260508083005 | 44 | 90 | 1.7 | 4.3 | 0.00 | 0.00 | 0.00 | 46 | 1020.1 |
| 20260508082504 | 44 | 46 | 1.7 | 2.6 | 0.00 | 0.00 | 0.00 | 45 | 1020.7 |
| 20260508082004 | 45 | 46 | 1.7 | 7.0 | 0.00 | 0.00 | 0.00 | 44 | 1020.7 |
| 20260508081505 | 45 | 280 | 1.7 | 7.0 | 0.00 | 0.00 | 0.00 | 44 | 1020.6 |
| 20260508081004 | 43 | 100 | 4.3 | 6.1 | 0.00 | 0.00 | 0.00 | 47 | 1020.0 |
| 20260508080004 | 43 | 5 | 2.6 | 7.0 | 0.00 | 0.00 | 0.00 | 48 | 1020.1 |
| 20260508075504 | 42 | 87 | 0.9 | 2.6 | 0.00 | 0.00 | 0.00 | 48 | 1020.3 |
| 20260508075005 | 42 | 50 | 0.9 | 7.8 | 0.00 | 0.00 | 0.00 | 49 | 1020.4 |
| 20260508074504 | 42 | 64 | 5.2 | 7.8 | 0.00 | 0.00 | 0.00 | 49 | 1020.4 |
| 20260508074004 | 42 | 20 | 0.9 | 5.2 | 0.00 | 0.00 | 0.00 | 49 | 1020.4 |
| 20260508073504 | 42 | 83 | 1.7 | 5.2 | 0.00 | 0.00 | 0.00 | 49 | 1020.4 |
| 20260508073004 | 42 | 52 | 2.6 | 7.0 | 0.00 | 0.00 | 0.00 | 49 | 1020.5 |
| 20260508072504 | 42 | 30 | 1.7 | 7.0 | 0.00 | 0.00 | 0.00 | 49 | 1020.5 |
| 20260508072004 | 42 | 45 | 3.5 | 5.2 | 0.00 | 0.00 | 0.00 | 49 | 1020.5 |
| 20260508071504 | 43 | 47 | 3.5 | 6.1 | 0.00 | 0.00 | 0.00 | 48 | 1020.7 |
| 20260508071004 | 43 | 49 | 3.5 | 6.1 | 0.00 | 0.00 | 0.00 | 48 | 1020.7 |
| 20260508065504 | 44 | 49 | 2.6 | 4.3 | 0.00 | 0.00 | 0.00 | 46 | 1020.1 |
| 20260508064504 | 45 | 67 | 1.7 | 2.6 | 0.00 | 0.00 | 0.00 | 45 | 1020.2 |
| 20260508064005 | 46 | 32 | 1.7 | 5.2 | 0.00 | 0.00 | 0.00 | 44 | 1020.2 |
| 20260508063504 | 46 | 71 | 1.7 | 5.2 | 0.00 | 0.00 | 0.00 | 43 | 1020.2 |
| 20260508062505 | 47 | 76 | 0.9 | 6.1 | 0.00 | 0.00 | 0.00 | 42 | 1020.2 |
| 20260508062005 | 48 | 15 | 2.6 | 10.4 | 0.00 | 0.00 | 0.00 | 41 | 1020.1 |
| 20260508061504 | 48 | 46 | 4.3 | 10.4 | 0.00 | 0.00 | 0.00 | 41 | 1020.0 |
| 20260508061004 | 48 | 39 | 5.2 | 8.7 | 0.00 | 0.00 | 0.00 | 41 | 1020.1 |
| 20260508060504 | 47 | 56 | 3.5 | 8.7 | 0.00 | 0.00 | 0.00 | 41 | 1020.1 |
| 20260508060005 | 47 | 66 | 6.1 | 8.7 | 0.00 | 0.00 | 0.00 | 42 | 1020.1 |
| 20260508055505 | 47 | 39 | 1.7 | 7.0 | 0.00 | 0.00 | 0.00 | 40 | 1020.1 |
| 20260508055005 | 47 | 56 | 3.5 | 10.4 | 0.00 | 0.00 | 0.00 | 41 | 1020.1 |
| 20260508054505 | 47 | 65 | 7.0 | 10.4 | 0.00 | 0.00 | 0.00 | 42 | 1019.9 |
| 20260508054006 | 47 | 25 | 2.6 | 7.0 | 0.00 | 0.00 | 0.00 | 41 | 1019.9 |
| 20260508053505 | 47 | 77 | 2.6 | 7.8 | 0.00 | 0.00 | 0.00 | 41 | 1019.9 |
| 20260508053005 | 47 | 36 | 6.1 | 8.7 | 0.00 | 0.00 | 0.00 | 40 | 1020.2 |
| 20260508052005 | 47 | 29 | 4.3 | 8.7 | 0.00 | 0.00 | 0.00 | 40 | 1019.8 |
| 20260508051505 | 47 | 49 | 4.3 | 7.8 | 0.00 | 0.00 | 0.00 | 40 | 1019.8 |
| 20260508051006 | 47 | 38 | 1.7 | 4.3 | 0.00 | 0.00 | 0.00 | 40 | 1019.8 |
| 20260508050505 | 47 | 50 | 2.6 | 6.1 | 0.00 | 0.00 | 0.00 | 39 | 1019.8 |
| 20260508050005 | 47 | 62 | 1.7 | 6.1 | 0.00 | 0.00 | 0.00 | 39 | 1019.8 |
| 20260508044505 | 50 | 26 | 3.5 | 7.8 | 0.00 | 0.00 | 0.00 | 35 | 1019.7 |
| 20260508044005 | 49 | 61 | 5.2 | 8.7 | 0.00 | 0.00 | 0.00 | 36 | 1019.7 |
| 20260508043505 | 47 | 63 | 6.1 | 8.7 | 0.00 | 0.00 | 0.00 | 38 | 1019.5 |
| 20260508043005 | 47 | 50 | 5.2 | 7.8 | 0.00 | 0.00 | 0.00 | 39 | 1019.5 |
| 20260508042005 | 48 | 42 | 5.2 | 8.7 | 0.00 | 0.00 | 0.00 | 36 | 1019.5 |
| 20260508041505 | 50 | 34 | 3.5 | 8.7 | 0.00 | 0.00 | 0.00 | 35 | 1019.5 |
| 20260508041005 | 49 | 51 | 7.8 | 8.7 | 0.00 | 0.00 | 0.00 | 35 | 1019.4 |
| 20260508040505 | 48 | 41 | 6.1 | 8.7 | 0.00 | 0.00 | 0.00 | 37 | 1019.4 |
| 20260508040005 | 48 | 39 | 4.3 | 7.8 | 0.00 | 0.00 | 0.00 | 36 | 1019.4 |
| 20260508035505 | 49 | 37 | 5.2 | 7.8 | 0.00 | 0.00 | 0.00 | 35 | 1019.3 |
| 20260508035005 | 50 | 47 | 5.2 | 7.8 | 0.00 | 0.00 | 0.00 | 34 | 1019.3 |
| 20260508034506 | 50 | 51 | 6.1 | 8.7 | 0.00 | 0.00 | 0.00 | 33 | 1019.1 |
| 20260508034005 | 52 | 43 | 5.2 | 8.7 | 0.00 | 0.00 | 0.00 | 32 | 1019.1 |
| 20260508033505 | 53 | 51 | 4.3 | 8.7 | 0.00 | 0.00 | 0.00 | 31 | 1019.1 |
| 20260508033005 | 53 | 56 | 7.0 | 8.7 | 0.00 | 0.00 | 0.00 | 30 | 1019.0 |
| 20260508032505 | 55 | 52 | 4.3 | 5.2 | 0.00 | 0.00 | 0.00 | 29 | 1019.0 |
| 20260508032005 | 55 | 62 | 3.5 | 4.3 | 0.00 | 0.00 | 0.00 | 29 | 1018.9 |
| 20260508031505 | 56 | 63 | 3.5 | 4.3 | 0.00 | 0.00 | 0.00 | 29 | 1018.4 |
| 20260508030005 | 58 | 260 | 4.3 | 8.7 | 0.00 | 0.00 | 0.00 | 27 | 1018.4 |
| 20260508025005 | 60 | 259 | 5.2 | 8.7 | 0.00 | 0.00 | 0.00 | 24 | 1017.7 |
| 20260508024505 | 61 | 160 | 6.1 | 11.3 | 0.00 | 0.00 | 0.00 | 24 | 1017.7 |
| 20260508024005 | 61 | 154 | 7.0 | 11.3 | 0.00 | 0.00 | 0.00 | 23 | 1017.7 |
| 20260508023505 | 62 | 150 | 7.8 | 11.3 | 0.00 | 0.00 | 0.00 | 23 | 1017.7 |
| 20260508023006 | 62 | 146 | 5.2 | 12.2 | 0.00 | 0.00 | 0.00 | 22 | 1017.7 |
| 20260508022505 | 62 | 156 | 8.7 | 12.2 | 0.00 | 0.00 | 0.00 | 22 | 1017.7 |
| 20260508022005 | 62 | 149 | 7.8 | 13.0 | 0.00 | 0.00 | 0.00 | 22 | 1017.7 |
| 20260508021504 | 62 | 153 | 9.6 | 13.0 | 0.00 | 0.00 | 0.00 | 21 | 1017.6 |
| 20260508021005 | 63 | 147 | 7.8 | 13.0 | 0.00 | 0.00 | 0.00 | 21 | 1017.5 |
| 20260508020505 | 63 | 154 | 6.1 | 13.9 | 0.00 | 0.00 | 0.00 | 21 | 1017.5 |
| 20260508020005 | 64 | 148 | 5.2 | 13.9 | 0.00 | 0.00 | 0.00 | 21 | 1017.5 |
| 20260508015504 | 64 | 160 | 9.6 | 13.9 | 0.00 | 0.00 | 0.00 | 21 | 1017.5 |
| 20260508015005 | 64 | 161 | 8.7 | 13.9 | 0.00 | 0.00 | 0.00 | 20 | 1017.7 |
| 20260508014505 | 65 | 155 | 7.8 | 14.8 | 0.00 | 0.00 | 0.00 | 20 | 1017.7 |
| 20260508014005 | 65 | 158 | 8.7 | 14.8 | 0.00 | 0.00 | 0.00 | 19 | 1017.7 |
| 20260508013006 | 66 | 167 | 10.4 | 14.8 | 0.00 | 0.00 | 0.00 | 18 | 1017.7 |
| 20260508012505 | 66 | 157 | 9.6 | 13.9 | 0.00 | 0.00 | 0.00 | 18 | 1017.8 |
| 20260508012005 | 66 | 164 | 9.6 | 14.8 | 0.00 | 0.00 | 0.00 | 18 | 1017.9 |
| 20260508011505 | 66 | 168 | 10.4 | 15.6 | 0.00 | 0.00 | 0.00 | 17 | 1017.8 |
| 20260508011005 | 67 | 169 | 10.4 | 15.6 | 0.00 | 0.00 | 0.00 | 17 | 1017.8 |
| 20260508010506 | 67 | 173 | 9.6 | 13.9 | 0.00 | 0.00 | 0.00 | 17 | 1017.9 |
| 20260508010005 | 67 | 193 | 7.8 | 12.2 | 0.00 | 0.00 | 0.00 | 18 | 1017.5 |
| 20260508005504 | 67 | 199 | 6.1 | 10.4 | 0.00 | 0.00 | 0.00 | 18 | 1017.5 |
| 20260508005005 | 67 | 215 | 6.1 | 10.4 | 0.00 | 0.00 | 0.00 | 17 | 1018.1 |
| 20260508004505 | 68 | 199 | 7.0 | 12.2 | 0.00 | 0.00 | 0.00 | 18 | 1018.1 |
| 20260508004005 | 68 | 196 | 7.8 | 12.2 | 0.00 | 0.00 | 0.00 | 18 | 1018.1 |
| 20260508003504 | 68 | 190 | 7.0 | 12.2 | 0.00 | 0.00 | 0.00 | 17 | 1018.1 |
| 20260508003005 | 68 | 215 | 6.1 | 12.2 | 0.00 | 0.00 | 0.00 | 17 | 1018.6 |
| 20260508002504 | 68 | 198 | 7.8 | 11.3 | 0.00 | 0.00 | 0.00 | 18 | 1018.6 |
| 20260508002005 | 68 | 173 | 5.2 | 11.3 | 0.00 | 0.00 | 0.00 | 17 | 1018.6 |
| 20260508001505 | 68 | 183 | 6.1 | 10.4 | 0.00 | 0.00 | 0.00 | 17 | 1018.6 |
| 20260508001005 | 68 | 181 | 8.7 | 11.3 | 0.00 | 0.00 | 0.00 | 18 | 1018.6 |
| 20260508000505 | 68 | 192 | 7.8 | 14.8 | 0.00 | 0.00 | 0.00 | 17 | 1018.6 |
| 20260508000005 | 68 | 219 | 9.6 | 14.8 | 0.00 | 0.00 | 0.00 | 17 | 1018.4 |
| 20260507235505 | 68 | 212 | 8.7 | 14.8 | 0.00 | 0.00 | 0.00 | 17 | 1018.4 |
| 20260507235005 | 68 | 188 | 8.7 | 12.2 | 0.00 | 0.00 | 0.00 | 17 | 1018.4 |
| 20260507234505 | 68 | 229 | 5.2 | 12.2 | 0.00 | 0.00 | 0.00 | 18 | 1018.4 |
| 20260507234005 | 68 | 160 | 7.8 | 11.3 | 0.00 | 0.00 | 0.00 | 17 | 1018.5 |
| 20260507233504 | 68 | 205 | 3.5 | 12.2 | 0.00 | 0.00 | 0.00 | 17 | 1018.5 |
| 20260507232504 | 69 | 205 | 5.2 | 13.9 | 0.00 | 0.00 | 0.00 | 16 | 1018.6 |
| 20260507232005 | 69 | 214 | 5.2 | 13.9 | 0.00 | 0.00 | 0.00 | 17 | 1018.6 |
| 20260507231005 | 68 | 240 | 7.0 | 12.2 | 0.00 | 0.00 | 0.00 | 17 | 1018.6 |
| 20260507230505 | 68 | 234 | 5.2 | 12.2 | 0.00 | 0.00 | 0.00 | 17 | 1018.8 |
| 20260507230005 | 69 | 222 | 8.7 | 13.0 | 0.00 | 0.00 | 0.00 | 15 | 1018.8 |
| 20260507225505 | 69 | 214 | 10.4 | 13.9 | 0.00 | 0.00 | 0.00 | 16 | 1019.0 |
| 20260507224505 | 68 | 173 | 6.1 | 13.9 | 0.00 | 0.00 | 0.00 | 16 | 1018.7 |
| 20260507223504 | 68 | 211 | 8.7 | 15.6 | 0.00 | 0.00 | 0.00 | 17 | 1018.7 |
| 20260507223005 | 68 | 191 | 8.7 | 15.6 | 0.00 | 0.00 | 0.00 | 17 | 1018.7 |
| 20260507222504 | 67 | 155 | 6.1 | 11.3 | 0.00 | 0.00 | 0.00 | 16 | 1019.0 |
| 20260507222005 | 67 | 169 | 2.6 | 10.4 | 0.00 | 0.00 | 0.00 | 17 | 1019.0 |
| 20260507221505 | 67 | 202 | 2.6 | 12.2 | 0.00 | 0.00 | 0.00 | 16 | 1019.0 |
| 20260507220504 | 67 | 217 | 8.7 | 13.9 | 0.00 | 0.00 | 0.00 | 16 | 1019.7 |
| 20260507215505 | 67 | 222 | 8.7 | 13.0 | 0.00 | 0.00 | 0.00 | 17 | 1019.3 |
| 20260507215005 | 67 | 250 | 4.3 | 11.3 | 0.00 | 0.00 | 0.00 | 17 | 1019.5 |
| 20260507214505 | 67 | 252 | 4.3 | 10.4 | 0.00 | 0.00 | 0.00 | 16 | 1019.5 |
| 20260507214005 | 67 | 244 | 6.1 | 11.3 | 0.00 | 0.00 | 0.00 | 18 | 1019.7 |
| 20260507212504 | 66 | 135 | 5.2 | 12.2 | 0.00 | 0.00 | 0.00 | 17 | 1019.8 |
| 20260507212005 | 66 | 175 | 5.2 | 12.2 | 0.00 | 0.00 | 0.00 | 18 | 1020.1 |
| 20260507211505 | 66 | 201 | 8.7 | 12.2 | 0.00 | 0.00 | 0.00 | 18 | 1020.3 |
| 20260507210505 | 65 | 205 | 8.7 | 13.0 | 0.00 | 0.00 | 0.00 | 17 | 1020.5 |
| 20260507210005 | 65 | 136 | 3.5 | 12.2 | 0.00 | 0.00 | 0.00 | 17 | 1020.5 |
| 20260507205505 | 65 | 174 | 5.2 | 12.2 | 0.00 | 0.00 | 0.00 | 17 | 1020.9 |
| 20260507205005 | 65 | 224 | 7.0 | 12.2 | 0.00 | 0.00 | 0.00 | 17 | 1020.9 |
| 20260507204505 | 64 | 269 | 7.8 | 12.2 | 0.00 | 0.00 | 0.00 | 17 | 1020.9 |
| 20260507204004 | 64 | 145 | 6.1 | 12.2 | 0.00 | 0.00 | 0.00 | 17 | 1020.9 |
| 20260507202505 | 63 | 127 | 5.2 | 8.7 | 0.00 | 0.00 | 0.00 | 17 | 1021.6 |
| 20260507202005 | 63 | 89 | 3.5 | 7.0 | 0.00 | 0.00 | 0.00 | 16 | 1021.6 |
| 20260507201504 | 63 | 126 | 2.6 | 10.4 | 0.00 | 0.00 | 0.00 | 17 | 1021.6 |
| 20260507201005 | 63 | 275 | 2.6 | 12.2 | 0.00 | 0.00 | 0.00 | 16 | 1021.8 |
| 20260507200505 | 63 | 239 | 8.7 | 12.2 | 0.00 | 0.00 | 0.00 | 17 | 1021.7 |
| 20260507200005 | 64 | 232 | 5.2 | 12.2 | 0.00 | 0.00 | 0.00 | 18 | 1021.3 |
| 20260507195505 | 63 | 267 | 4.3 | 10.4 | 0.00 | 0.00 | 0.00 | 17 | 1021.5 |
| 20260507195005 | 62 | 285 | 5.2 | 10.4 | 0.00 | 0.00 | 0.00 | 19 | 1021.6 |
| 20260507194505 | 62 | 251 | 6.1 | 10.4 | 0.00 | 0.00 | 0.00 | 18 | 1021.6 |
| 20260507194005 | 62 | 22 | 3.5 | 10.4 | 0.00 | 0.00 | 0.00 | 17 | 1021.7 |
| 20260507193504 | 62 | 221 | 2.6 | 10.4 | 0.00 | 0.00 | 0.00 | 18 | 1021.9 |
| 20260507193005 | 62 | 284 | 6.1 | 10.4 | 0.00 | 0.00 | 0.00 | 17 | 1022.1 |
| 20260507192505 | 63 | 246 | 4.3 | 11.3 | 0.00 | 0.00 | 0.00 | 20 | 1022.1 |
| 20260507192005 | 61 | 229 | 2.6 | 12.2 | 0.00 | 0.00 | 0.00 | 18 | 1022.1 |
| 20260507191504 | 62 | 243 | 5.2 | 12.2 | 0.00 | 0.00 | 0.00 | 19 | 1022.2 |
| 20260507190504 | 61 | 201 | 5.2 | 10.4 | 0.00 | 0.00 | 0.00 | 19 | 1022.4 |
| 20260507190005 | 60 | 248 | 6.1 | 10.4 | 0.00 | 0.00 | 0.00 | 18 | 1022.6 |
| 20260507185004 | 60 | 258 | 5.2 | 10.4 | 0.00 | 0.00 | 0.00 | 19 | 1022.5 |
| 20260507184504 | 60 | 242 | 5.2 | 13.0 | 0.00 | 0.00 | 0.00 | 19 | 1022.5 |
| 20260507184005 | 59 | 223 | 7.8 | 13.0 | 0.00 | 0.00 | 0.00 | 18 | 1022.5 |
| 20260507183504 | 59 | 198 | 5.2 | 10.4 | 0.00 | 0.00 | 0.00 | 19 | 1022.6 |
| 20260507182504 | 58 | 292 | 5.2 | 10.4 | 0.00 | 0.00 | 0.00 | 19 | 1022.7 |
| 20260507182005 | 58 | 250 | 7.0 | 10.4 | 0.00 | 0.00 | 0.00 | 17 | 1022.7 |
| 20260507181505 | 58 | 267 | 5.2 | 10.4 | 0.00 | 0.00 | 0.00 | 19 | 1023.3 |
| 20260507181004 | 58 | 240 | 7.8 | 12.2 | 0.00 | 0.00 | 0.00 | 19 | 1023.3 |
| 20260507180505 | 59 | 229 | 6.1 | 12.2 | 0.00 | 0.00 | 0.00 | 20 | 1023.3 |
| 20260507180005 | 58 | 236 | 7.0 | 12.2 | 0.00 | 0.00 | 0.00 | 22 | 1023.3 |
| 20260507174504 | 58 | 220 | 4.3 | 10.4 | 0.00 | 0.00 | 0.00 | 23 | 1023.3 |
| 20260507174004 | 58 | 168 | 7.8 | 10.4 | 0.00 | 0.00 | 0.00 | 22 | 1023.3 |
| 20260507173505 | 57 | 179 | 0.9 | 8.7 | 0.00 | 0.00 | 0.00 | 20 | 1023.3 |
| 20260507173005 | 57 | 191 | 5.2 | 8.7 | 0.00 | 0.00 | 0.00 | 18 | 1023.4 |
| 20260507172505 | 56 | 160 | 2.6 | 8.7 | 0.00 | 0.00 | 0.00 | 20 | 1023.5 |
| 20260507172005 | 57 | 167 | 5.2 | 8.7 | 0.00 | 0.00 | 0.00 | 20 | 1023.5 |
| 20260507171504 | 56 | 76 | 1.7 | 7.8 | 0.00 | 0.00 | 0.00 | 19 | 1023.9 |
| 20260507170505 | 55 | 244 | 3.5 | 7.0 | 0.00 | 0.00 | 0.00 | 23 | 1023.5 |
| 20260507170004 | 55 | 143 | 5.2 | 7.0 | 0.00 | 0.00 | 0.00 | 24 | 1023.6 |
| 20260507165504 | 55 | 122 | 1.7 | 7.0 | 0.00 | 0.00 | 0.00 | 24 | 1023.9 |
| 20260507165004 | 54 | 177 | 3.5 | 7.0 | 0.00 | 0.00 | 0.00 | 25 | 1023.9 |
| 20260507164504 | 54 | 186 | 0.9 | 7.0 | 0.00 | 0.00 | 0.00 | 25 | 1023.9 |
| 20260507164004 | 54 | 117 | 1.7 | 7.0 | 0.00 | 0.00 | 0.00 | 24 | 1023.9 |
| 20260507163504 | 54 | 209 | 5.2 | 7.8 | 0.00 | 0.00 | 0.00 | 24 | 1023.9 |
| 20260507163005 | 53 | 119 | 0.9 | 7.8 | 0.00 | 0.00 | 0.00 | 26 | 1023.9 |
| 20260507162504 | 53 | 197 | 4.3 | 7.8 | 0.00 | 0.00 | 0.00 | 27 | 1024.1 |
| 20260507162005 | 53 | 179 | 5.2 | 10.4 | 0.00 | 0.00 | 0.00 | 25 | 1024.1 |
| 20260507161505 | 52 | 170 | 5.2 | 10.4 | 0.00 | 0.00 | 0.00 | 26 | 1024.2 |
| 20260507160004 | 51 | 160 | 5.2 | 10.4 | 0.00 | 0.00 | 0.00 | 26 | 1024.2 |
| 20260507155504 | 51 | 205 | 5.2 | 10.4 | 0.00 | 0.00 | 0.00 | 27 | 1024.2 |
| 20260507154504 | 51 | 200 | 5.2 | 10.4 | 0.00 | 0.00 | 0.00 | 28 | 1024.4 |
| 20260507154005 | 50 | 184 | 4.3 | 10.4 | 0.00 | 0.00 | 0.00 | 27 | 1024.4 |
| 20260507153505 | 51 | 179 | 6.1 | 10.4 | 0.00 | 0.00 | 0.00 | 27 | 1024.4 |
| 20260507153004 | 51 | 181 | 6.1 | 10.4 | 0.00 | 0.00 | 0.00 | 29 | 1024.4 |
| 20260507152505 | 50 | 186 | 7.8 | 10.4 | 0.00 | 0.00 | 0.00 | 30 | 1024.4 |
| 20260507152005 | 50 | 186 | 7.0 | 12.2 | 0.00 | 0.00 | 0.00 | 29 | 1024.5 |
| 20260507151505 | 50 | 190 | 9.6 | 12.2 | 0.00 | 0.00 | 0.00 | 28 | 1024.5 |
| 20260507151004 | 51 | 211 | 6.1 | 10.4 | 0.00 | 0.00 | 0.00 | 26 | 1024.5 |
| 20260507150505 | 50 | 227 | 4.3 | 6.1 | 0.00 | 0.00 | 0.00 | 27 | 1024.5 |
| 20260507150005 | 49 | 218 | 2.6 | 4.3 | 0.00 | 0.00 | 0.00 | 28 | 1024.5 |
| 20260507145504 | 49 | 225 | 2.6 | 4.3 | 0.00 | 0.00 | 0.00 | 28 | 1024.4 |
| 20260507144504 | 48 | 243 | 1.7 | 2.6 | 0.00 | 0.00 | 0.00 | 29 | 1024.7 |
| 20260507144004 | 47 | 264 | 0.9 | 2.6 | 0.00 | 0.00 | 0.00 | 32 | 1024.7 |
| 20260507143504 | 47 | 253 | 1.7 | 2.6 | 0.00 | 0.00 | 0.00 | 31 | 1024.7 |
| 20260507143005 | 47 | 262 | 2.6 | 2.6 | 0.00 | 0.00 | 0.00 | 32 | 1024.9 |
| 20260507142505 | 47 | 253 | 0.0 | 2.6 | 0.00 | 0.00 | 0.00 | 31 | 1024.9 |
| 20260507142004 | 47 | 252 | 1.7 | 2.6 | 0.00 | 0.00 | 0.00 | 30 | 1024.9 |
| 20260507141504 | 46 | 71 | 0.0 | 1.7 | 0.00 | 0.00 | 0.00 | 27 | 1024.9 |
| 20260507140504 | 43 | 72 | 0.9 | 2.6 | 0.00 | 0.00 | 0.00 | 31 | 1024.9 |
| 20260507140005 | 42 | 72 | 0.9 | 2.6 | 0.00 | 0.00 | 0.00 | 35 | 1024.9 |
| 20260507135504 | 40 | 72 | 0.9 | 2.6 | 0.00 | 0.00 | 0.00 | 36 | 1024.9 |
| 20260507135005 | 39 | 72 | 1.7 | 2.6 | 0.00 | 0.00 | 0.00 | 38 | 1024.6 |
| 20260507134504 | 38 | 58 | 1.7 | 2.6 | 0.00 | 0.00 | 0.00 | 39 | 1024.6 |
| 20260507134004 | 36 | 50 | 0.9 | 2.6 | 0.00 | 0.00 | 0.00 | 43 | 1024.6 |
| 20260507133505 | 35 | 44 | 1.7 | 2.6 | 0.00 | 0.00 | 0.00 | 44 | 1024.6 |
| 20260507133004 | 34 | 44 | 1.7 | 4.3 | 0.00 | 0.00 | 0.00 | 45 | 1024.6 |
| 20260507132505 | 33 | 52 | 3.5 | 5.2 | 0.00 | 0.00 | 0.00 | 45 | 1024.6 |
| 20260507131504 | 31 | 58 | 3.5 | 8.7 | 0.00 | 0.00 | 0.00 | 47 | 1024.3 |
| 20260507131005 | 30 | 38 | 5.2 | 8.7 | 0.00 | 0.00 | 0.00 | 46 | 1024.3 |
| 20260507130005 | 29 | 40 | 5.2 | 8.7 | 0.00 | 0.00 | 0.00 | 48 | 1024.6 |
| 20260507125504 | 27 | 44 | 7.0 | 8.7 | 0.00 | 0.00 | 0.00 | 51 | 1024.6 |
| 20260507125004 | 25 | 45 | 7.0 | 10.4 | 0.00 | 0.00 | 0.00 | 54 | 1024.4 |
| 20260507124505 | 25 | 42 | 7.8 | 10.4 | 0.00 | 0.00 | 0.00 | 55 | 1024.4 |
| 20260507124004 | 25 | 43 | 7.0 | 10.4 | 0.00 | 0.00 | 0.00 | 54 | 1024.6 |
| 20260507123504 | 25 | 45 | 7.8 | 10.4 | 0.00 | 0.00 | 0.00 | 55 | 1024.1 |
| 20260507123005 | 24 | 46 | 7.8 | 10.4 | 0.00 | 0.00 | 0.00 | 57 | 1024.1 |
| 20260507122504 | 23 | 45 | 6.1 | 7.8 | 0.00 | 0.00 | 0.00 | 58 | 1024.1 |
| 20260507122005 | 23 | 53 | 4.3 | 7.8 | 0.00 | 0.00 | 0.00 | 58 | 1024.0 |
| 20260507121505 | 23 | 54 | 6.1 | 7.8 | 0.00 | 0.00 | 0.00 | 59 | 1024.3 |
| 20260507120504 | 24 | 40 | 6.1 | 7.8 | 0.00 | 0.00 | 0.00 | 57 | 1024.3 |
| 20260507120005 | 23 | 58 | 4.3 | 6.1 | 0.00 | 0.00 | 0.00 | 58 | 1024.3 |
| 20260507115504 | 22 | 52 | 4.3 | 6.1 | 0.00 | 0.00 | 0.00 | 59 | 1024.2 |
| 20260507115004 | 22 | 55 | 5.2 | 7.8 | 0.00 | 0.00 | 0.00 | 60 | 1023.7 |
| 20260507114505 | 22 | 47 | 6.1 | 7.8 | 0.00 | 0.00 | 0.00 | 60 | 1023.7 |
| 20260507114005 | 22 | 42 | 5.2 | 7.8 | 0.00 | 0.00 | 0.00 | 60 | 1023.7 |
| 20260507113504 | 22 | 50 | 4.3 | 7.8 | 0.00 | 0.00 | 0.00 | 59 | 1023.7 |
| 20260507113005 | 22 | 62 | 2.6 | 6.1 | 0.00 | 0.00 | 0.00 | 60 | 1023.7 |
| 20260507112504 | 22 | 55 | 4.3 | 7.8 | 0.00 | 0.00 | 0.00 | 61 | 1023.7 |
| 20260507112004 | 22 | 44 | 5.2 | 7.8 | 0.00 | 0.00 | 0.00 | 61 | 1023.7 |
| 20260507111004 | 22 | 51 | 5.2 | 7.8 | 0.00 | 0.00 | 0.00 | 60 | 1023.8 |
| 20260507110004 | 23 | 42 | 6.1 | 7.8 | 0.00 | 0.00 | 0.00 | 58 | 1023.8 |
| 20260507105504 | 24 | 41 | 6.1 | 7.8 | 0.00 | 0.00 | 0.00 | 56 | 1023.7 |